createdAt,value
2022-09-09T00:01:38.483Z,98580.30
2022-09-09T00:04:29.307Z,98576.80
2022-09-09T00:07:06.166Z,98577.94
2022-09-09T00:09:47.182Z,98576.41
2022-09-09T00:12:34.545Z,98579.88
2022-09-09T00:15:20.777Z,98585.60
2022-09-09T00:17:56.341Z,98582.77
2022-09-09T00:20:27.187Z,98587.05
2022-09-09T00:23:12.110Z,98587.36
2022-09-09T00:26:05.740Z,98588.71
2022-09-09T00:28:40.289Z,98594.68
2022-09-09T00:31:21.965Z,98595.34
2022-09-09T00:33:52.103Z,98595.11
2022-09-09T00:36:25.419Z,98591.64
2022-09-09T00:38:58.675Z,98595.52
2022-09-09T00:42:10.764Z,98591.44
2022-09-09T00:44:40.867Z,98589.83
2022-09-09T00:47:40.775Z,98591.88
2022-09-09T00:50:27.400Z,98590.16
2022-09-09T00:53:01.378Z,98590.73
2022-09-09T00:55:49.600Z,98585.64
2022-09-09T00:58:17.554Z,98583.78
2022-09-09T01:00:51.208Z,98581.50
2022-09-09T01:03:41.514Z,98584.30
2022-09-09T01:06:40.722Z,98588.13
2022-09-09T01:09:18.463Z,98599.06
2022-09-09T01:12:19.086Z,98598.27
2022-09-09T01:14:53.518Z,98594.67
2022-09-09T01:17:48.013Z,98597.46
2022-09-09T01:20:28.653Z,98595.29
2022-09-09T01:23:12.313Z,98600.46
2022-09-09T01:26:19.625Z,98601.98
2022-09-09T01:28:50.786Z,98604.90
2022-09-09T01:31:24.010Z,98600.36
2022-09-09T01:33:52.334Z,98600.77
2022-09-09T01:36:36.338Z,98604.31
2022-09-09T01:39:04.995Z,98597.19
2022-09-09T01:41:33.301Z,98602.57
2022-09-09T01:44:01.760Z,98605.25
2022-09-09T01:46:30.514Z,98609.83
2022-09-09T01:49:03.667Z,98615.80
2022-09-09T01:51:32.438Z,98614.23
2022-09-09T01:54:01.028Z,98610.83
2022-09-09T01:56:44.086Z,98614.30
2022-09-09T01:59:21.281Z,98614.89
2022-09-09T02:02:09.986Z,98614.09
2022-09-09T02:05:04.319Z,98608.88
2022-09-09T02:07:41.539Z,98610.26
2022-09-09T02:10:48.463Z,98605.93
2022-09-09T02:13:19.703Z,98604.52
2022-09-09T02:15:57.446Z,98606.27
2022-09-09T02:19:26.949Z,98610.33
2022-09-09T02:21:58.978Z,98602.50
2022-09-09T02:24:28.766Z,98604.02
2022-09-09T02:27:00.178Z,98599.53
2022-09-09T02:29:42.661Z,98597.81
2022-09-09T02:32:16.875Z,98599.70
2022-09-09T02:34:50.025Z,98598.13
2022-09-09T02:37:22.009Z,98599.58
2022-09-09T02:39:50.367Z,98603.23
2022-09-09T02:42:18.327Z,98611.06
2022-09-09T02:44:46.780Z,98610.20
2022-09-09T02:47:40.226Z,98610.56
2022-09-09T02:50:37.722Z,98608.42
2022-09-09T02:53:22.106Z,98610.55
2022-09-09T02:56:14.970Z,98614.36
2022-09-09T02:58:43.694Z,98620.70
2022-09-09T03:01:12.752Z,98614.90
2022-09-09T03:03:43.198Z,98617.73
2022-09-09T03:06:13.208Z,98616.31
2022-09-09T03:08:48.998Z,98621.85
2022-09-09T03:11:18.374Z,98626.05
2022-09-09T03:13:46.357Z,98628.03
2022-09-09T03:16:14.069Z,98624.55
2022-09-09T03:18:41.809Z,98623.53
2022-09-09T03:21:09.475Z,98620.54
2022-09-09T03:23:37.118Z,98616.31
2022-09-09T03:26:04.803Z,98624.25
2022-09-09T03:28:33.747Z,98619.09
2022-09-09T03:31:03.831Z,98620.73
2022-09-09T03:33:32.503Z,98621.28
2022-09-09T03:36:00.259Z,98618.52
2022-09-09T03:38:27.960Z,98621.77
2022-09-09T03:40:58.584Z,98625.48
2022-09-09T03:43:27.772Z,98624.30
2022-09-09T03:45:59.156Z,98623.11
2022-09-09T03:48:29.595Z,98624.90
2022-09-09T03:50:59.364Z,98622.54
2022-09-09T03:53:28.220Z,98621.56
2022-09-09T03:56:01.139Z,98620.73
2022-09-09T03:58:29.574Z,98619.86
2022-09-09T04:01:00.778Z,98619.13
2022-09-09T04:03:30.141Z,98619.36
2022-09-09T04:06:01.318Z,98618.20
2022-09-09T04:08:32.490Z,98619.55
2022-09-09T04:11:02.819Z,98616.30
2022-09-09T04:13:31.367Z,98618.25
2022-09-09T04:16:01.080Z,98615.35
2022-09-09T04:18:29.312Z,98619.77
2022-09-09T04:20:58.900Z,98622.27
2022-09-09T04:23:30.593Z,98621.60
2022-09-09T04:26:00.180Z,98623.77
2022-09-09T04:28:32.033Z,98620.69
2022-09-09T04:31:19.094Z,98622.40
2022-09-09T04:33:47.696Z,98620.52
2022-09-09T04:36:15.524Z,98620.80
2022-09-09T04:38:45.517Z,98620.05
2022-09-09T04:41:14.171Z,98622.21
2022-09-09T04:43:41.949Z,98625.30
2022-09-09T04:46:10.431Z,98625.13
2022-09-09T04:48:38.503Z,98632.13
2022-09-09T04:51:08.476Z,98633.64
2022-09-09T04:53:36.831Z,98639.75
2022-09-09T04:56:07.918Z,98640.69
2022-09-09T04:58:39.899Z,98646.87
2022-09-09T05:01:25.837Z,98652.11
2022-09-09T05:03:57.340Z,98652.74
2022-09-09T05:06:26.495Z,98655.87
2022-09-09T05:08:54.451Z,98653.15
2022-09-09T05:11:27.909Z,98657.95
2022-09-09T05:13:56.941Z,98662.21
2022-09-09T05:16:28.004Z,98664.48
2022-09-09T05:18:56.545Z,98664.91
2022-09-09T05:21:29.303Z,98666.02
2022-09-09T05:23:57.191Z,98664.08
2022-09-09T05:26:28.409Z,98668.67
2022-09-09T05:28:59.144Z,98669.67
2022-09-09T05:31:29.708Z,98665.75
2022-09-09T05:33:59.996Z,98668.48
2022-09-09T05:36:29.348Z,98670.89
2022-09-09T05:38:57.909Z,98669.61
2022-09-09T05:41:25.846Z,98673.87
2022-09-09T05:43:53.595Z,98673.72
2022-09-09T05:46:26.438Z,98675.64
2022-09-09T05:48:55.970Z,98676.13
2022-09-09T05:51:28.319Z,98674.29
2022-09-09T05:54:02.153Z,98675.10
2022-09-09T05:56:34.168Z,98676.58
2022-09-09T05:59:03.848Z,98675.57
2022-09-09T06:01:37.688Z,98677.05
2022-09-09T06:04:05.686Z,98680.77
2022-09-09T06:06:41.016Z,98684.73
2022-09-09T06:09:13.080Z,98687.44
2022-09-09T06:11:43.556Z,98684.36
2022-09-09T06:14:11.685Z,98688.92
2022-09-09T06:16:40.780Z,98686.09
2022-09-09T06:19:08.882Z,98688.81
2022-09-09T06:21:41.928Z,98692.24
2022-09-09T06:24:14.920Z,98687.40
2022-09-09T06:26:46.492Z,98694.98
2022-09-09T06:29:14.513Z,98698.08
2022-09-09T06:31:45.800Z,98700.55
2022-09-09T06:34:17.298Z,98707.75
2022-09-09T06:36:50.277Z,98706.86
2022-09-09T06:39:18.956Z,98709.79
2022-09-09T06:41:54.170Z,98708.15
2022-09-09T06:44:21.844Z,98711.70
2022-09-09T06:46:49.825Z,98717.80
2022-09-09T06:49:22.960Z,98720.91
2022-09-09T06:51:54.468Z,98725.79
2022-09-09T06:54:26.664Z,98725.34
2022-09-09T06:56:55.807Z,98729.67
2022-09-09T06:59:23.778Z,98736.34
2022-09-09T07:01:56.518Z,98738.24
2022-09-09T07:04:28.593Z,98739.29
2022-09-09T07:06:56.528Z,98741.63
2022-09-09T07:09:26.475Z,98743.16
2022-09-09T07:11:59.561Z,98748.36
2022-09-09T07:14:30.672Z,98749.92
2022-09-09T07:16:59.806Z,98754.06
2022-09-09T07:19:31.060Z,98755.27
2022-09-09T07:21:58.971Z,98756.59
2022-09-09T07:24:34.411Z,98756.34
2022-09-09T07:27:02.360Z,98757.88
2022-09-09T07:29:33.534Z,98765.65
2022-09-09T07:32:01.630Z,98766.12
2022-09-09T07:34:29.566Z,98767.23
2022-09-09T07:37:01.942Z,98766.20
2022-09-09T07:39:29.663Z,98764.59
2022-09-09T07:42:00.805Z,98765.52
2022-09-09T07:44:32.859Z,98764.80
2022-09-09T07:47:00.835Z,98767.59
2022-09-09T07:49:32.840Z,98772.21
2022-09-09T07:52:04.647Z,98772.86
2022-09-09T07:54:34.530Z,98770.64
2022-09-09T07:57:05.904Z,98769.19
2022-09-09T07:59:38.127Z,98768.89
2022-09-09T08:02:10.654Z,98777.71
2022-09-09T08:04:38.656Z,98777.13
2022-09-09T08:07:08.446Z,98782.81
2022-09-09T08:09:36.371Z,98782.27
2022-09-09T08:12:04.511Z,98787.72
2022-09-09T08:14:34.282Z,98789.83
2022-09-09T08:17:02.252Z,98787.90
2022-09-09T08:19:36.942Z,98791.20
2022-09-09T08:22:05.002Z,98792.45
2022-09-09T08:24:34.870Z,98793.05
2022-09-09T08:27:04.654Z,98790.42
2022-09-09T08:29:32.609Z,98795.91
2022-09-09T08:32:03.938Z,98804.56
2022-09-09T08:34:36.068Z,98806.46
2022-09-09T08:37:04.126Z,98802.98
2022-09-09T08:39:38.036Z,98801.00
2022-09-09T08:42:17.270Z,98794.44
2022-09-09T08:45:13.649Z,98791.30
2022-09-09T08:48:00.016Z,98790.73
2022-09-09T08:50:39.713Z,98787.41
2022-09-09T08:53:43.034Z,98776.22
2022-09-09T08:56:22.733Z,98776.63
2022-09-09T08:58:55.544Z,98777.44
2022-09-09T09:01:31.532Z,98774.63
2022-09-09T09:03:59.491Z,98777.13
2022-09-09T09:07:02.542Z,98783.11
2022-09-09T09:09:38.598Z,98784.59
2022-09-09T09:12:17.195Z,98781.89
2022-09-09T09:14:50.702Z,98784.76
2022-09-09T09:17:26.444Z,98783.98
2022-09-09T09:19:58.137Z,98790.35
2022-09-09T09:22:53.911Z,98789.34
2022-09-09T09:25:42.483Z,98785.77
2022-09-09T09:28:28.249Z,98787.91
2022-09-09T09:31:15.017Z,98792.96
2022-09-09T09:33:56.650Z,98800.10
2022-09-09T09:36:39.378Z,98800.14
2022-09-09T09:41:58.854Z,98796.68
2022-09-09T09:44:32.170Z,98795.70
2022-09-09T09:47:15.474Z,98791.02
2022-09-09T09:49:57.081Z,98799.67
2022-09-09T09:52:30.549Z,98800.52
2022-09-09T09:55:07.545Z,98799.63
2022-09-09T09:57:42.495Z,98800.63
2022-09-09T10:00:19.919Z,98805.79
2022-09-09T10:02:53.554Z,98807.84
2022-09-09T10:05:35.586Z,98808.05
2022-09-09T10:08:17.687Z,98810.99
2022-09-09T10:11:22.203Z,98812.67
2022-09-09T10:14:23.281Z,98810.62
2022-09-09T10:17:11.390Z,98798.39
2022-09-09T10:20:00.163Z,98799.80
2022-09-09T10:22:36.760Z,98799.13
2022-09-09T10:25:18.406Z,98799.54
2022-09-09T10:28:34.022Z,98797.66
2022-09-09T10:31:29.733Z,98797.05
2022-09-09T10:34:07.449Z,98798.23
2022-09-09T10:36:47.717Z,98799.67
2022-09-09T10:39:18.389Z,98800.74
2022-09-09T10:42:04.423Z,98798.13
2022-09-09T10:44:57.236Z,98799.04
2022-09-09T10:48:02.888Z,98802.77
2022-09-09T10:51:01.133Z,98808.01
2022-09-09T10:53:55.140Z,98806.52
2022-09-09T10:56:28.200Z,98805.10
2022-09-09T10:59:27.317Z,98807.90
2022-09-09T11:02:11.163Z,98809.31
2022-09-09T11:04:45.228Z,98813.48
2022-09-09T11:07:29.904Z,98822.63
2022-09-09T11:10:07.555Z,98818.95
2022-09-09T11:12:41.652Z,98818.53
2022-09-09T11:15:34.503Z,98822.80
2022-09-09T11:18:15.774Z,98827.23
2022-09-09T11:20:49.924Z,98832.84
2022-09-09T11:23:31.524Z,98837.61
2022-09-09T11:26:08.501Z,98837.00
2022-09-09T11:29:19.516Z,98838.84
2022-09-09T11:32:06.046Z,98839.19
2022-09-09T11:35:03.611Z,98840.42
2022-09-09T11:37:49.542Z,98839.34
2022-09-09T11:40:35.335Z,98842.46
2022-09-09T11:43:23.028Z,98843.35
2022-09-09T11:46:01.352Z,98844.54
2022-09-09T11:48:38.009Z,98842.45
2022-09-09T11:51:19.862Z,98844.98
2022-09-09T11:54:18.935Z,98846.86
2022-09-09T11:56:50.240Z,98847.42
2022-09-09T11:59:33.692Z,98849.41
2022-09-09T12:02:08.094Z,98844.36
2022-09-09T12:04:45.901Z,98842.43
2022-09-09T12:07:45.088Z,98840.36
2022-09-09T12:10:36.434Z,98838.02
2022-09-09T12:13:25.819Z,98830.31
2022-09-09T12:15:59.250Z,98823.14
2022-09-09T12:18:46.833Z,98823.59
2022-09-09T12:21:29.911Z,98817.77
2022-09-09T12:24:07.270Z,98819.84
2022-09-09T12:26:45.955Z,98817.26
2022-09-09T12:29:19.843Z,98812.73
2022-09-09T12:32:08.412Z,98815.33
2022-09-09T12:34:58.202Z,98821.14
2022-09-09T12:37:49.453Z,98815.98
2022-09-09T12:40:37.380Z,98811.86
2022-09-09T12:43:25.368Z,98811.16
2022-09-09T12:46:02.033Z,98806.50
2022-09-09T12:48:38.713Z,98796.61
2022-09-09T12:51:28.791Z,98793.33
2022-09-09T12:54:01.044Z,98791.27
2022-09-09T12:56:34.564Z,98793.18
2022-09-09T12:59:06.296Z,98798.13
2022-09-09T13:01:37.916Z,98799.17
2022-09-09T13:04:23.593Z,98797.81
2022-09-09T13:06:56.641Z,98796.66
2022-09-09T13:09:24.656Z,98794.85
2022-09-09T13:11:59.478Z,98794.18
2022-09-09T13:14:41.679Z,98800.02
2022-09-09T13:17:21.264Z,98802.25
2022-09-09T13:19:54.087Z,98804.80
2022-09-09T13:22:37.085Z,98809.70
2022-09-09T13:25:30.498Z,98809.11
2022-09-09T13:28:05.963Z,98808.96
2022-09-09T13:30:41.268Z,98810.08
2022-09-09T13:33:12.268Z,98812.48
2022-09-09T13:35:48.607Z,98812.98
2022-09-09T13:38:19.155Z,98810.61
2022-09-09T13:41:05.820Z,98811.55
2022-09-09T13:43:48.439Z,98809.75
2022-09-09T13:46:32.021Z,98805.39
2022-09-09T13:49:13.139Z,98801.24
2022-09-09T13:51:47.999Z,98794.40
2022-09-09T13:54:20.591Z,98790.65
2022-09-09T13:56:52.225Z,98792.56
2022-09-09T13:59:23.199Z,98793.75
2022-09-09T14:01:54.648Z,98792.36
2022-09-09T14:04:22.330Z,98793.00
2022-09-09T14:06:53.528Z,98792.96
2022-09-09T14:09:24.890Z,98789.77
2022-09-09T14:11:52.599Z,98785.37
2022-09-09T14:14:27.495Z,98779.70
2022-09-09T14:16:55.192Z,98777.20
2022-09-09T14:19:26.312Z,98775.11
2022-09-09T14:21:54.013Z,98771.86
2022-09-09T14:24:21.736Z,98773.79
2022-09-09T14:26:49.431Z,98776.16
2022-09-09T14:29:26.098Z,98776.14
2022-09-09T14:31:54.053Z,98773.98
2022-09-09T14:34:21.972Z,98767.42
2022-09-09T14:36:49.886Z,98762.11
2022-09-09T14:39:17.828Z,98767.89
2022-09-09T14:41:49.350Z,98771.14
2022-09-09T14:44:21.210Z,98768.64
2022-09-09T14:46:54.585Z,98768.83
2022-09-09T14:49:25.779Z,98769.95
2022-09-09T14:51:53.811Z,98766.91
2022-09-09T14:54:27.351Z,98766.14
2022-09-09T14:56:58.759Z,98770.90
2022-09-09T14:59:26.533Z,98768.58
2022-09-09T15:02:01.038Z,98767.09
2022-09-09T15:04:29.030Z,98767.84
2022-09-09T15:07:00.962Z,98766.16
2022-09-09T15:09:28.630Z,98769.86
2022-09-09T15:12:01.131Z,98774.48
2022-09-09T15:14:29.857Z,98776.05
2022-09-09T15:16:59.725Z,98777.76
2022-09-09T15:19:30.727Z,98772.77
2022-09-09T15:22:01.216Z,98771.60
2022-09-09T15:24:29.143Z,98772.60
2022-09-09T15:27:01.045Z,98779.17
2022-09-09T15:29:32.619Z,98776.81
2022-09-09T15:32:00.541Z,98775.93
2022-09-09T15:34:30.305Z,98776.48
2022-09-09T15:37:01.283Z,98774.31
2022-09-09T15:39:35.757Z,98780.75
2022-09-09T15:42:13.231Z,98776.07
2022-09-09T15:44:47.751Z,98777.54
2022-09-09T15:47:19.610Z,98772.92
2022-09-09T15:49:47.342Z,98777.29
2022-09-09T15:52:15.044Z,98772.52
2022-09-09T15:54:50.073Z,98774.19
2022-09-09T15:57:18.013Z,98782.00
2022-09-09T15:59:47.588Z,98784.67
2022-09-09T16:02:22.624Z,98784.66
2022-09-09T16:04:50.682Z,98790.48
2022-09-09T16:07:21.919Z,98788.55
2022-09-09T16:09:53.878Z,98792.92
2022-09-09T16:12:25.817Z,98793.88
2022-09-09T16:14:53.724Z,98790.46
2022-09-09T16:17:23.350Z,98793.56
2022-09-09T16:19:58.702Z,98796.30
2022-09-09T16:22:26.626Z,98799.10
2022-09-09T16:24:56.310Z,98796.36
2022-09-09T16:27:24.426Z,98804.67
2022-09-09T16:29:54.456Z,98804.38
2022-09-09T16:32:25.592Z,98810.62
2022-09-09T16:34:53.373Z,98812.39
2022-09-09T16:37:21.054Z,98815.23
2022-09-09T16:39:48.996Z,98815.54
2022-09-09T16:42:18.805Z,98824.02
2022-09-09T16:44:46.853Z,98827.10
2022-09-09T16:47:14.538Z,98829.34
2022-09-09T16:49:45.723Z,98829.31
2022-09-09T16:52:17.108Z,98825.50
2022-09-09T16:54:48.338Z,98825.36
2022-09-09T16:57:17.942Z,98823.86
2022-09-09T16:59:45.661Z,98825.53
2022-09-09T17:02:13.501Z,98831.06
2022-09-09T17:04:45.187Z,98829.82
2022-09-09T17:07:14.957Z,98829.99
2022-09-09T17:09:48.850Z,98827.31
2022-09-09T17:12:20.686Z,98830.45
2022-09-09T17:14:52.121Z,98827.95
2022-09-09T17:17:31.695Z,98828.86
2022-09-09T17:20:08.139Z,98835.92
2022-09-09T17:22:39.387Z,98839.27
2022-09-09T17:25:09.711Z,98841.38
2022-09-09T17:27:40.458Z,98840.45
2022-09-09T17:30:11.935Z,98845.47
2022-09-09T17:32:39.858Z,98842.14
2022-09-09T17:35:10.456Z,98845.01
2022-09-09T17:37:38.552Z,98850.89
2022-09-09T17:40:10.131Z,98852.47
2022-09-09T17:42:39.826Z,98854.55
2022-09-09T17:45:10.971Z,98854.60
2022-09-09T17:47:42.154Z,98858.45
2022-09-09T17:50:13.886Z,98864.49
2022-09-09T17:52:43.859Z,98865.86
2022-09-09T17:55:13.710Z,98868.91
2022-09-09T17:57:47.297Z,98864.79
2022-09-09T18:00:18.339Z,98866.61
2022-09-09T18:02:46.451Z,98872.80
2022-09-09T18:05:17.219Z,98873.48
2022-09-09T18:07:52.485Z,98882.64
2022-09-09T18:10:20.439Z,98893.08
2022-09-09T18:12:48.377Z,98897.11
2022-09-09T18:15:33.336Z,98897.48
2022-09-09T18:18:11.597Z,98896.96
2022-09-09T18:20:39.519Z,98902.45
2022-09-09T18:23:10.890Z,98906.09
2022-09-09T18:25:40.322Z,98903.95
2022-09-09T18:28:09.222Z,98904.54
2022-09-09T18:30:40.668Z,98903.92
2022-09-09T18:33:09.161Z,98903.87
2022-09-09T18:35:41.626Z,98907.81
2022-09-09T18:38:11.321Z,98907.27
2022-09-09T18:40:39.371Z,98903.66
2022-09-09T18:43:11.558Z,98900.61
2022-09-09T18:45:42.905Z,98898.04
2022-09-09T18:48:10.806Z,98903.39
2022-09-09T18:50:38.778Z,98909.51
2022-09-09T18:53:10.149Z,98909.17
2022-09-09T18:55:41.435Z,98910.95
2022-09-09T18:58:09.189Z,98910.34
2022-09-09T19:00:40.511Z,98914.70
2022-09-09T19:03:10.361Z,98914.49
2022-09-09T19:05:41.240Z,98910.44
2022-09-09T19:08:09.180Z,98902.43
2022-09-09T19:10:40.613Z,98898.02
2022-09-09T19:13:08.791Z,98897.14
2022-09-09T19:15:42.207Z,98896.63
2022-09-09T19:18:10.971Z,98893.89
2022-09-09T19:20:42.318Z,98900.02
2022-09-09T19:23:10.265Z,98907.30
2022-09-09T19:25:40.219Z,98904.65
2022-09-09T19:28:08.159Z,98896.89
2022-09-09T19:30:39.751Z,98886.39
2022-09-09T19:33:11.505Z,98891.45
2022-09-09T19:35:39.324Z,98897.05
2022-09-09T19:38:11.206Z,98900.96
2022-09-09T19:40:43.713Z,98891.94
2022-09-09T19:43:11.545Z,98896.75
2022-09-09T19:45:39.646Z,98907.06
2022-09-09T19:48:11.988Z,98907.40
2022-09-09T19:50:41.867Z,98907.31
2022-09-09T19:53:10.166Z,98909.48
2022-09-09T19:55:41.534Z,98909.34
2022-09-09T19:58:09.537Z,98908.66
2022-09-09T20:00:42.385Z,98903.77
2022-09-09T20:03:19.215Z,98908.17
2022-09-09T20:05:50.156Z,98910.66
2022-09-09T20:08:18.199Z,98906.45
2022-09-09T20:10:56.050Z,98910.06
2022-09-09T20:13:24.974Z,98914.06
2022-09-09T20:16:03.661Z,98918.66
2022-09-09T20:18:33.808Z,98921.22
2022-09-09T20:21:07.616Z,98921.66
2022-09-09T20:23:35.815Z,98911.67
2022-09-09T20:26:08.487Z,98907.41
2022-09-09T20:28:41.318Z,98910.30
2022-09-09T20:31:19.364Z,98911.91
2022-09-09T20:33:52.244Z,98907.61
2022-09-09T20:36:28.200Z,98909.40
2022-09-09T20:39:02.263Z,98906.91
2022-09-09T20:41:36.321Z,98901.88
2022-09-09T20:44:09.148Z,98897.66
2022-09-09T20:46:41.045Z,98896.41
2022-09-09T20:49:11.417Z,98897.29
2022-09-09T20:51:40.194Z,98903.88
2022-09-09T20:54:12.423Z,98911.65
2022-09-09T20:56:42.543Z,98914.26
2022-09-09T20:59:16.893Z,98906.89
2022-09-09T21:01:47.463Z,98908.56
2022-09-09T21:04:17.689Z,98907.61
2022-09-09T21:06:46.659Z,98906.20
2022-09-09T21:09:14.572Z,98904.19
2022-09-09T21:11:42.541Z,98907.60
2022-09-09T21:14:10.918Z,98908.85
2022-09-09T21:16:38.836Z,98908.11
2022-09-09T21:19:06.966Z,98911.36
2022-09-09T21:21:36.363Z,98911.67
2022-09-09T21:24:04.739Z,98909.13
2022-09-09T21:26:33.175Z,98901.50
2022-09-09T21:29:01.456Z,98901.02
2022-09-09T21:31:30.013Z,98899.45
2022-09-09T21:33:58.269Z,98898.10
2022-09-09T21:36:28.697Z,98905.48
2022-09-09T21:38:59.432Z,98906.95
2022-09-09T21:41:28.397Z,98905.77
2022-09-09T21:43:57.131Z,98903.10
2022-09-09T21:46:27.784Z,98902.85
2022-09-09T21:48:58.181Z,98903.40
2022-09-09T21:51:25.946Z,98895.48
2022-09-09T21:53:56.644Z,98891.50
2022-09-09T21:56:27.432Z,98895.23
2022-09-09T21:58:58.579Z,98897.38
2022-09-09T22:01:26.821Z,98900.17
2022-09-09T22:03:56.254Z,98901.17
2022-09-09T22:06:24.870Z,98892.73
2022-09-09T22:08:59.025Z,98890.60
2022-09-09T22:11:27.117Z,98893.79
2022-09-09T22:13:56.818Z,98898.14
2022-09-09T22:16:26.474Z,98899.04
2022-09-09T22:18:58.373Z,98899.43
2022-09-09T22:21:30.442Z,98898.96
2022-09-09T22:24:02.204Z,98898.99
2022-09-09T22:26:34.763Z,98897.55
2022-09-09T22:29:05.020Z,98890.76
2022-09-09T22:31:36.127Z,98892.33
2022-09-09T22:34:05.760Z,98896.39
2022-09-09T22:36:34.978Z,98901.88
2022-09-09T22:39:05.679Z,98901.35
2022-09-09T22:41:34.048Z,98895.79
2022-09-09T22:44:03.495Z,98894.42
2022-09-09T22:46:31.504Z,98893.20
2022-09-09T22:49:03.729Z,98887.05
2022-09-09T22:51:35.463Z,98885.84
2022-09-09T22:54:05.538Z,98878.65
2022-09-09T22:56:33.896Z,98873.48
2022-09-09T22:59:02.653Z,98868.70
2022-09-09T23:01:31.666Z,98868.57
2022-09-09T23:04:03.217Z,98864.65
2022-09-09T23:06:32.720Z,98860.61
2022-09-09T23:09:03.952Z,98858.59
2022-09-09T23:11:37.552Z,98853.34
2022-09-09T23:14:10.799Z,98852.11
2022-09-09T23:16:44.055Z,98849.73
2022-09-09T23:19:16.740Z,98845.81
2022-09-09T23:21:47.161Z,98843.05
2022-09-09T23:24:19.089Z,98840.80
2022-09-09T23:26:48.394Z,98843.97
2022-09-09T23:29:16.899Z,98848.96
2022-09-09T23:31:46.825Z,98842.06
2022-09-09T23:34:16.269Z,98843.66
2022-09-09T23:36:45.074Z,98840.44
2022-09-09T23:39:13.842Z,98841.46
2022-09-09T23:41:41.587Z,98837.23
2022-09-09T23:44:13.472Z,98830.95
2022-09-09T23:46:41.611Z,98828.06
2022-09-09T23:49:11.266Z,98820.65
2022-09-09T23:51:39.963Z,98820.95
2022-09-09T23:54:10.578Z,98824.98
2022-09-09T23:56:42.413Z,98823.96
2022-09-09T23:59:11.216Z,98821.10
